Time;durP1;ratioP1;P1;durP2;ratioP2;P2;SDS_P1;SDS_P2;PMS_P1;PMS_P2;Temp;Humidity;BMP_temperature;BMP_pressure;BME280_temperature;BME280_humidity;BME280_pressure;Samples;Min_cycle;Max_cycle;Signal;HPM_P1;HPM_P2
2022/08/12 21:10:30;;;;;;;6.78;3.50;;;;;;;;;;5085978;28;20428;-74
2022/08/12 21:12:55;;;;;;;8.35;3.60;;;;;;;;;;5076556;28;20024;-73
2022/08/12 21:15:21;;;;;;;10.68;3.55;;;;;;;;;;5076875;28;20024;-73
2022/08/12 21:17:47;;;;;;;10.38;3.90;;;;;;;;;;5076199;28;20020;-73
2022/08/12 21:20:13;;;;;;;9.38;3.60;;;;;;;;;;5058750;28;20388;-73
2022/08/12 21:22:39;;;;;;;6.63;3.70;;;;;;;;;;5076667;28;20044;-75
2022/08/12 21:25:09;;;;;;;6.88;3.50;;;;;;;;;;5058645;28;20216;-75
2022/08/12 21:27:44;;;;;;;6.07;3.72;;;;;;;;;;5076224;28;20325;-75
2022/08/12 21:30:13;;;;;;;8.13;3.42;;;;;;;;;;5076240;28;20035;-75
2022/08/12 21:32:39;;;;;;;8.88;3.60;;;;;;;;;;5076056;28;20332;-75
2022/08/12 21:35:05;;;;;;;8.77;3.50;;;;;;;;;;5076444;28;20024;-76
2022/08/12 21:37:31;;;;;;;6.25;3.47;;;;;;;;;;5076187;28;20312;-76
2022/08/12 21:39:56;;;;;;;8.18;3.63;;;;;;;;;;5076309;28;20021;-75
2022/08/12 21:42:22;;;;;;;7.05;3.90;;;;;;;;;;5076244;28;20035;-75
2022/08/12 21:44:47;;;;;;;4.82;3.50;;;;;;;;;;5075844;28;20205;-75
2022/08/12 21:47:15;;;;;;;7.82;3.42;;;;;;;;;;5075820;28;20024;-75
2022/08/12 21:49:41;;;;;;;6.85;3.42;;;;;;;;;;5075624;28;20051;-75
2022/08/12 21:52:10;;;;;;;5.25;3.53;;;;;;;;;;5075846;28;20367;-75
2022/08/12 21:54:41;;;;;;;5.75;3.30;;;;;;;;;;5075861;28;20032;-75
2022/08/12 21:57:07;;;;;;;6.60;3.40;;;;;;;;;;5075888;28;20031;-75
2022/08/12 21:59:33;;;;;;;6.20;3.45;;;;;;;;;;5057984;28;20025;-76
2022/08/12 22:01:58;;;;;;;4.22;3.35;;;;;;;;;;5075363;28;20092;-74
2022/08/12 22:07:07;;;;;;;5.60;3.40;;;;;;;;;;5072092;28;20071;-74
2022/08/12 22:09:34;;;;;;;6.57;4.28;;;;;;;;;;5075500;28;20115;-74
2022/08/12 22:14:48;;;;;;;8.35;4.45;;;;;;;;;;5075567;28;20300;-75
2022/08/12 22:17:14;;;;;;;7.15;3.60;;;;;;;;;;5073836;28;20027;-77
2022/08/12 22:19:45;;;;;;;5.70;3.20;;;;;;;;;;5068024;28;20088;-74
2022/08/12 22:22:12;;;;;;;6.30;3.20;;;;;;;;;;5049825;28;20411;-72
2022/08/12 22:24:38;;;;;;;5.55;3.38;;;;;;;;;;5042779;28;20029;-72
2022/08/12 22:27:06;;;;;;;7.15;3.60;;;;;;;;;;5054485;28;20484;-73
2022/08/12 22:32:17;;;;;;;5.18;3.40;;;;;;;;;;5046649;28;20079;-75
2022/08/12 22:34:43;;;;;;;7.00;3.50;;;;;;;;;;5050781;28;20307;-75
2022/08/12 22:37:10;;;;;;;4.97;3.10;;;;;;;;;;5052761;28;20029;-75
2022/08/12 22:39:35;;;;;;;9.93;3.47;;;;;;;;;;5048530;28;20063;-76
2022/08/12 22:47:38;;;;;;;7.03;3.22;;;;;;;;;;5046017;28;20436;-75
2022/08/12 22:50:04;;;;;;;6.72;3.22;;;;;;;;;;5049399;28;20025;-75
2022/08/12 22:52:30;;;;;;;6.22;3.10;;;;;;;;;;5047826;28;20088;-76
2022/08/12 22:54:57;;;;;;;5.88;3.40;;;;;;;;;;5044541;28;20048;-75
2022/08/12 22:57:26;;;;;;;4.63;3.15;;;;;;;;;;5036607;28;20043;-73
2022/08/12 22:59:53;;;;;;;6.53;3.20;;;;;;;;;;5046434;28;20099;-73
2022/08/12 23:02:19;;;;;;;7.38;3.15;;;;;;;;;;5046501;28;20019;-74
2022/08/12 23:04:44;;;;;;;6.43;3.28;;;;;;;;;;5049809;28;20017;-74
2022/08/12 23:07:09;;;;;;;6.30;3.65;;;;;;;;;;5047650;28;20033;-75
2022/08/12 23:09:35;;;;;;;8.05;3.33;;;;;;;;;;5047375;28;20056;-74
2022/08/12 23:12:01;;;;;;;5.35;3.20;;;;;;;;;;5059458;28;20071;-74
2022/08/12 23:14:28;;;;;;;4.75;3.28;;;;;;;;;;5058493;28;20037;-75
2022/08/12 23:16:54;;;;;;;5.30;3.45;;;;;;;;;;5055773;28;20194;-74
2022/08/12 23:19:28;;;;;;;9.32;3.42;;;;;;;;;;5048364;28;20024;-74
2022/08/12 23:21:59;;;;;;;6.53;3.13;;;;;;;;;;5058383;28;20044;-74
2022/08/12 23:24:26;;;;;;;5.80;3.08;;;;;;;;;;5038511;28;20129;-74
2022/08/12 23:29:36;;;;;;;5.22;3.30;;;;;;;;;;5060158;28;20032;-75
2022/08/12 23:32:02;;;;;;;7.50;3.35;;;;;;;;;;5054672;28;20033;-75
2022/08/12 23:34:35;;;;;;;8.82;3.47;;;;;;;;;;5060452;28;20028;-74
2022/08/12 23:37:05;;;;;;;7.68;3.40;;;;;;;;;;5055041;28;20043;-75
2022/08/12 23:39:32;;;;;;;6.18;3.20;;;;;;;;;;5051602;28;20040;-74
2022/08/12 23:41:58;;;;;;;6.53;3.50;;;;;;;;;;5055916;28;20040;-74
2022/08/12 23:44:25;;;;;;;4.95;3.15;;;;;;;;;;5054358;28;20089;-75
2022/08/12 23:46:56;;;;;;;5.75;3.10;;;;;;;;;;5056686;28;20043;-74
2022/08/12 23:49:28;;;;;;;6.30;3.20;;;;;;;;;;5042077;28;20049;-73
2022/08/12 23:52:01;;;;;;;5.10;2.97;;;;;;;;;;5054967;28;20028;-74
2022/08/12 23:54:27;;;;;;;4.07;2.83;;;;;;;;;;5054009;28;20032;-75
2022/08/12 23:56:57;;;;;;;5.55;3.00;;;;;;;;;;5043446;28;20090;-73
2022/08/12 23:59:28;;;;;;;5.65;3.13;;;;;;;;;;5043669;28;20051;-75
